sensor_id;sensor_type;location;lat;lon;timestamp;pressure;altitude;pressure_sealevel;temperature;humidity
8585;BME280;7180;52.742;11.420;2023-03-04T00:01:27;101063.63;;;3.45;100.00
8585;BME280;7180;52.742;11.420;2023-03-04T00:03:53;101056.59;;;3.50;100.00
8585;BME280;7180;52.742;11.420;2023-03-04T00:06:18;101034.00;;;3.52;100.00
8585;BME280;7180;52.742;11.420;2023-03-04T00:08:43;101036.53;;;3.55;100.00
8585;BME280;7180;52.742;11.420;2023-03-04T00:11:08;101021.75;;;3.57;100.00
8585;BME280;7180;52.742;11.420;2023-03-04T00:13:34;101007.81;;;3.61;100.00
8585;BME280;7180;52.742;11.420;2023-03-04T00:15:59;101015.16;;;3.79;100.00
8585;BME280;7180;52.742;11.420;2023-03-04T00:18:24;100972.09;;;3.67;99.92
8585;BME280;7180;52.742;11.420;2023-03-04T00:20:49;100956.63;;;3.61;99.81
8585;BME280;7180;52.742;11.420;2023-03-04T00:23:15;100945.44;;;3.58;99.49
8585;BME280;7180;52.742;11.420;2023-03-04T00:25:41;100941.47;;;3.45;99.18
8585;BME280;7180;52.742;11.420;2023-03-04T00:28:06;100981.28;;;3.45;99.56
8585;BME280;7180;52.742;11.420;2023-03-04T00:30:31;101034.63;;;3.63;99.86
8585;BME280;7180;52.742;11.420;2023-03-04T00:32:57;101020.63;;;3.67;99.96
8585;BME280;7180;52.742;11.420;2023-03-04T00:35:22;101005.94;;;3.66;99.89
8585;BME280;7180;52.742;11.420;2023-03-04T00:37:47;101005.00;;;3.68;99.84
8585;BME280;7180;52.742;11.420;2023-03-04T00:40:13;100994.59;;;3.70;99.73
8585;BME280;7180;52.742;11.420;2023-03-04T00:42:38;101012.56;;;3.77;99.40
8585;BME280;7180;52.742;11.420;2023-03-04T00:45:04;101002.94;;;3.82;99.21
8585;BME280;7180;52.742;11.420;2023-03-04T00:47:30;100989.97;;;3.81;99.35
8585;BME280;7180;52.742;11.420;2023-03-04T00:49:55;100995.09;;;3.84;99.38
8585;BME280;7180;52.742;11.420;2023-03-04T00:52:20;100999.16;;;3.94;99.47
8585;BME280;7180;52.742;11.420;2023-03-04T00:54:45;100992.03;;;4.02;99.06
8585;BME280;7180;52.742;11.420;2023-03-04T00:57:11;100954.16;;;3.90;98.78
8585;BME280;7180;52.742;11.420;2023-03-04T00:59:36;100966.97;;;3.98;98.99
8585;BME280;7180;52.742;11.420;2023-03-04T01:02:01;100972.88;;;4.04;98.96
8585;BME280;7180;52.742;11.420;2023-03-04T01:04:26;100961.59;;;4.05;98.69
8585;BME280;7180;52.742;11.420;2023-03-04T01:06:52;100958.75;;;4.14;98.27
8585;BME280;7180;52.742;11.420;2023-03-04T01:09:17;100962.16;;;4.16;98.86
8585;BME280;7180;52.742;11.420;2023-03-04T01:11:42;100959.47;;;4.19;98.55
8585;BME280;7180;52.742;11.420;2023-03-04T01:14:08;100919.81;;;4.10;98.42
8585;BME280;7180;52.742;11.420;2023-03-04T01:16:33;100975.66;;;4.31;98.69
8585;BME280;7180;52.742;11.420;2023-03-04T01:18:58;100930.06;;;4.16;98.06
8585;BME280;7180;52.742;11.420;2023-03-04T01:21:24;100957.38;;;4.32;98.26
8585;BME280;7180;52.742;11.420;2023-03-04T01:23:49;100972.75;;;4.41;98.48
8585;BME280;7180;52.742;11.420;2023-03-04T01:26:14;100944.38;;;4.32;98.39
8585;BME280;7180;52.742;11.420;2023-03-04T01:28:39;100958.09;;;4.37;98.78
8585;BME280;7180;52.742;11.420;2023-03-04T01:31:05;100976.03;;;4.49;98.34
8585;BME280;7180;52.742;11.420;2023-03-04T01:33:30;100958.50;;;4.54;98.67
8585;BME280;7180;52.742;11.420;2023-03-04T01:35:56;100958.34;;;4.60;98.56
8585;BME280;7180;52.742;11.420;2023-03-04T01:38:22;100941.25;;;4.50;98.23
8585;BME280;7180;52.742;11.420;2023-03-04T01:40:47;100955.84;;;4.56;98.53
8585;BME280;7180;52.742;11.420;2023-03-04T01:43:18;100963.56;;;4.60;98.49
8585;BME280;7180;52.742;11.420;2023-03-04T01:45:47;100960.84;;;4.63;98.47
8585;BME280;7180;52.742;11.420;2023-03-04T01:48:15;100947.75;;;4.66;98.44
8585;BME280;7180;52.742;11.420;2023-03-04T01:50:43;100930.97;;;4.76;97.81
8585;BME280;7180;52.742;11.420;2023-03-04T01:53:16;100919.53;;;4.80;98.08
8585;BME280;7180;52.742;11.420;2023-03-04T01:55:44;100902.16;;;4.81;98.07
8585;BME280;7180;52.742;11.420;2023-03-04T01:58:11;100902.06;;;4.84;97.96
8585;BME280;7180;52.742;11.420;2023-03-04T02:00:36;100897.47;;;4.92;97.62
8585;BME280;7180;52.742;11.420;2023-03-04T02:03:05;100866.66;;;4.78;97.60
8585;BME280;7180;52.742;11.420;2023-03-04T02:05:33;100878.72;;;4.81;97.28
8585;BME280;7180;52.742;11.420;2023-03-04T02:07:59;100896.72;;;4.88;97.81
8585;BME280;7180;52.742;11.420;2023-03-04T02:10:26;100908.19;;;5.10;97.69
8585;BME280;7180;52.742;11.420;2023-03-04T02:12:52;100847.06;;;4.93;97.67
8585;BME280;7180;52.742;11.420;2023-03-04T02:15:18;100866.88;;;4.98;97.06
8585;BME280;7180;52.742;11.420;2023-03-04T02:17:43;100860.81;;;4.98;97.14
8585;BME280;7180;52.742;11.420;2023-03-04T02:22:52;100859.09;;;4.97;97.15
8585;BME280;7180;52.742;11.420;2023-03-04T02:25:23;100870.50;;;4.94;97.08
8585;BME280;7180;52.742;11.420;2023-03-04T02:27:51;100875.41;;;5.03;97.67
8585;BME280;7180;52.742;11.420;2023-03-04T02:30:19;100867.88;;;4.94;97.53
8585;BME280;7180;52.742;11.420;2023-03-04T02:32:45;100874.88;;;4.92;97.71
8585;BME280;7180;52.742;11.420;2023-03-04T02:35:16;100880.00;;;4.95;97.46
8585;BME280;7180;52.742;11.420;2023-03-04T02:37:42;100889.53;;;4.96;98.06
8585;BME280;7180;52.742;11.420;2023-03-04T02:40:28;100909.31;;;5.02;98.19
8585;BME280;7180;52.742;11.420;2023-03-04T02:42:57;100912.72;;;5.05;98.14
8585;BME280;7180;52.742;11.420;2023-03-04T02:45:30;100889.53;;;4.96;98.29
8585;BME280;7180;52.742;11.420;2023-03-04T02:47:58;100921.34;;;5.06;98.23
8585;BME280;7180;52.742;11.420;2023-03-04T02:50:25;100912.72;;;5.05;98.32
8585;BME280;7180;52.742;11.420;2023-03-04T02:52:51;100887.81;;;4.95;98.13
8585;BME280;7180;52.742;11.420;2023-03-04T02:55:16;100920.25;;;5.13;98.10
8585;BME280;7180;52.742;11.420;2023-03-04T02:57:41;100885.03;;;5.01;98.36
8585;BME280;7180;52.742;11.420;2023-03-04T03:00:07;100908.19;;;5.10;97.90
8585;BME280;7180;52.742;11.420;2023-03-04T03:02:32;100895.69;;;5.21;98.01
8585;BME280;7180;52.742;11.420;2023-03-04T03:04:58;100850.75;;;5.13;97.66
8585;BME280;7180;52.742;11.420;2023-03-04T03:07:23;100831.69;;;5.11;97.62
8585;BME280;7180;52.742;11.420;2023-03-04T03:09:49;100806.69;;;5.06;97.21
8585;BME280;7180;52.742;11.420;2023-03-04T03:12:14;100818.63;;;5.13;97.46
8585;BME280;7180;52.742;11.420;2023-03-04T03:14:40;100809.56;;;5.24;97.01
8585;BME280;7180;52.742;11.420;2023-03-04T03:17:05;100762.13;;;5.13;97.10
8585;BME280;7180;52.742;11.420;2023-03-04T03:19:30;100766.25;;;5.20;96.61
8585;BME280;7180;52.742;11.420;2023-03-04T03:21:55;100740.47;;;5.11;96.83
8585;BME280;7180;52.742;11.420;2023-03-04T03:24:21;100747.00;;;4.98;96.81
8585;BME280;7180;52.742;11.420;2023-03-04T03:26:46;100797.41;;;5.23;97.03
8585;BME280;7180;52.742;11.420;2023-03-04T03:29:11;100782.94;;;5.15;96.75
8585;BME280;7180;52.742;11.420;2023-03-04T03:31:36;100775.34;;;5.09;97.21
8585;BME280;7180;52.742;11.420;2023-03-04T03:34:02;100777.19;;;5.05;97.12
8585;BME280;7180;52.742;11.420;2023-03-04T03:36:27;100797.97;;;5.07;97.41
8585;BME280;7180;52.742;11.420;2023-03-04T03:38:52;100816.97;;;5.10;97.46
8585;BME280;7180;52.742;11.420;2023-03-04T03:41:17;100818.72;;;5.10;97.33
8585;BME280;7180;52.742;11.420;2023-03-04T03:43:42;100822.78;;;5.18;97.20
8585;BME280;7180;52.742;11.420;2023-03-04T03:46:08;100795.78;;;5.21;96.89
8585;BME280;7180;52.742;11.420;2023-03-04T03:48:33;100776.66;;;5.20;96.80
8585;BME280;7180;52.742;11.420;2023-03-04T03:50:58;100762.03;;;5.16;96.78
8585;BME280;7180;52.742;11.420;2023-03-04T03:53:24;100770.59;;;5.20;97.01
8585;BME280;7180;52.742;11.420;2023-03-04T03:55:49;100754.06;;;5.21;97.01
8585;BME280;7180;52.742;11.420;2023-03-04T03:58:14;100755.00;;;5.18;96.67
8585;BME280;7180;52.742;11.420;2023-03-04T04:00:39;100780.25;;;5.18;97.13
8585;BME280;7180;52.742;11.420;2023-03-04T04:03:06;100795.56;;;5.27;97.03
8585;BME280;7180;52.742;11.420;2023-03-04T04:05:31;100782.56;;;5.25;97.09
8585;BME280;7180;52.742;11.420;2023-03-04T04:07:56;100768.97;;;5.17;96.95
8585;BME280;7180;52.742;11.420;2023-03-04T04:10:21;100780.69;;;5.31;96.94
8585;BME280;7180;52.742;11.420;2023-03-04T04:12:47;100767.41;;;5.37;96.52
8585;BME280;7180;52.742;11.420;2023-03-04T04:15:12;100743.88;;;5.40;96.33
8585;BME280;7180;52.742;11.420;2023-03-04T04:17:38;100731.59;;;5.42;96.18
8585;BME280;7180;52.742;11.420;2023-03-04T04:20:06;100719.41;;;5.42;96.03
8585;BME280;7180;52.742;11.420;2023-03-04T04:22:31;100703.16;;;5.36;96.25
8585;BME280;7180;52.742;11.420;2023-03-04T04:24:57;100691.38;;;5.24;95.84
8585;BME280;7180;52.742;11.420;2023-03-04T04:27:22;100718.78;;;5.36;96.33
8585;BME280;7180;52.742;11.420;2023-03-04T04:29:47;100702.63;;;5.26;96.04
8585;BME280;7180;52.742;11.420;2023-03-04T04:32:12;100729.31;;;5.32;96.12
8585;BME280;7180;52.742;11.420;2023-03-04T04:34:38;100740.53;;;5.35;96.27
8585;BME280;7180;52.742;11.420;2023-03-04T04:37:03;100732.16;;;5.26;96.62
8585;BME280;7180;52.742;11.420;2023-03-04T04:39:28;100744.59;;;5.18;96.76
8585;BME280;7180;52.742;11.420;2023-03-04T04:41:54;100745.44;;;5.19;96.82
8585;BME280;7180;52.742;11.420;2023-03-04T04:44:19;100783.38;;;5.27;96.97
8585;BME280;7180;52.742;11.420;2023-03-04T04:46:44;100782.78;;;5.19;97.23
8585;BME280;7180;52.742;11.420;2023-03-04T04:49:09;100796.06;;;5.12;96.96
8585;BME280;7180;52.742;11.420;2023-03-04T04:51:36;100855.44;;;5.30;97.63
8585;BME280;7180;52.742;11.420;2023-03-04T04:54:02;100847.56;;;5.32;97.59
8585;BME280;7180;52.742;11.420;2023-03-04T04:56:28;100820.97;;;5.20;97.69
8585;BME280;7180;52.742;11.420;2023-03-04T04:58:56;100838.28;;;5.23;97.47
8585;BME280;7180;52.742;11.420;2023-03-04T05:01:21;100846.16;;;5.21;97.89
8585;BME280;7180;52.742;11.420;2023-03-04T05:03:47;100878.19;;;5.25;98.49
8585;BME280;7180;52.742;11.420;2023-03-04T05:06:14;100882.44;;;5.27;98.04
8585;BME280;7180;52.742;11.420;2023-03-04T05:08:40;100876.63;;;5.19;98.53
8585;BME280;7180;52.742;11.420;2023-03-04T05:11:06;100899.06;;;5.23;98.37
8585;BME280;7180;52.742;11.420;2023-03-04T05:13:31;100939.50;;;5.37;98.91
8585;BME280;7180;52.742;11.420;2023-03-04T05:15:57;100911.81;;;5.32;98.92
8585;BME280;7180;52.742;11.420;2023-03-04T05:18:24;100914.22;;;5.39;98.68
8585;BME280;7180;52.742;11.420;2023-03-04T05:20:54;100896.91;;;5.38;98.71
8585;BME280;7180;52.742;11.420;2023-03-04T05:23:20;100887.66;;;5.27;98.51
8585;BME280;7180;52.742;11.420;2023-03-04T05:25:46;100886.00;;;5.25;98.73
8585;BME280;7180;52.742;11.420;2023-03-04T05:28:11;100909.44;;;5.26;99.24
8585;BME280;7180;52.742;11.420;2023-03-04T05:30:41;100916.53;;;5.21;98.99
8585;BME280;7180;52.742;11.420;2023-03-04T05:33:08;100952.81;;;5.27;99.33
8585;BME280;7180;52.742;11.420;2023-03-04T05:35:34;100957.34;;;5.22;100.00
8585;BME280;7180;52.742;11.420;2023-03-04T05:38:01;100966.03;;;5.23;100.00
8585;BME280;7180;52.742;11.420;2023-03-04T05:40:26;100973.09;;;5.19;99.99
8585;BME280;7180;52.742;11.420;2023-03-04T05:42:52;100993.03;;;5.20;100.00
8585;BME280;7180;52.742;11.420;2023-03-04T05:45:17;100981.19;;;5.10;100.00
8585;BME280;7180;52.742;11.420;2023-03-04T05:47:42;101017.41;;;5.19;100.00
8585;BME280;7180;52.742;11.420;2023-03-04T05:50:08;101030.50;;;5.16;100.00
8585;BME280;7180;52.742;11.420;2023-03-04T05:52:34;101028.25;;;5.04;100.00
8585;BME280;7180;52.742;11.420;2023-03-04T05:54:59;101067.41;;;5.03;100.00
8585;BME280;7180;52.742;11.420;2023-03-04T05:57:24;101095.88;;;5.10;100.00
8585;BME280;7180;52.742;11.420;2023-03-04T05:59:49;101094.22;;;5.06;100.00
8585;BME280;7180;52.742;11.420;2023-03-04T06:02:15;101111.66;;;5.04;100.00
8585;BME280;7180;52.742;11.420;2023-03-04T06:04:40;101106.84;;;4.89;100.00
8585;BME280;7180;52.742;11.420;2023-03-04T06:07:05;101143.09;;;4.98;100.00
8585;BME280;7180;52.742;11.420;2023-03-04T06:09:32;101155.34;;;4.96;100.00
8585;BME280;7180;52.742;11.420;2023-03-04T06:11:57;101169.34;;;4.92;100.00
8585;BME280;7180;52.742;11.420;2023-03-04T06:14:22;101168.59;;;4.87;100.00
8585;BME280;7180;52.742;11.420;2023-03-04T06:16:47;101187.84;;;4.82;100.00
8585;BME280;7180;52.742;11.420;2023-03-04T06:19:13;101188.09;;;4.73;100.00
8585;BME280;7180;52.742;11.420;2023-03-04T06:21:38;101221.13;;;5.04;100.00
8585;BME280;7180;52.742;11.420;2023-03-04T06:24:04;101212.56;;;4.99;100.00
8585;BME280;7180;52.742;11.420;2023-03-04T06:26:29;101209.00;;;5.03;100.00
8585;BME280;7180;52.742;11.420;2023-03-04T06:28:55;101198.63;;;5.00;100.00
8585;BME280;7180;52.742;11.420;2023-03-04T06:31:21;101188.94;;;5.07;100.00
8585;BME280;7180;52.742;11.420;2023-03-04T06:33:46;101173.19;;;5.10;100.00
8585;BME280;7180;52.742;11.420;2023-03-04T06:36:12;101155.97;;;5.04;100.00
8585;BME280;7180;52.742;11.420;2023-03-04T06:38:37;101145.38;;;5.10;100.00
8585;BME280;7180;52.742;11.420;2023-03-04T06:41:10;101136.59;;;5.14;100.00
8585;BME280;7180;52.742;11.420;2023-03-04T06:43:36;101123.81;;;5.05;100.00
8585;BME280;7180;52.742;11.420;2023-03-04T06:46:01;101119.28;;;5.12;100.00
8585;BME280;7180;52.742;11.420;2023-03-04T06:48:27;101126.16;;;5.14;100.00
8585;BME280;7180;52.742;11.420;2023-03-04T06:50:52;101147.66;;;5.22;100.00
8585;BME280;7180;52.742;11.420;2023-03-04T06:53:17;101152.94;;;5.19;100.00
8585;BME280;7180;52.742;11.420;2023-03-04T06:55:43;101153.13;;;5.13;100.00
8585;BME280;7180;52.742;11.420;2023-03-04T06:58:08;101187.63;;;5.23;100.00
8585;BME280;7180;52.742;11.420;2023-03-04T07:00:33;101205.16;;;5.16;100.00
8585;BME280;7180;52.742;11.420;2023-03-04T07:02:59;101232.94;;;5.17;100.00
8585;BME280;7180;52.742;11.420;2023-03-04T07:05:24;101240.03;;;5.12;100.00
8585;BME280;7180;52.742;11.420;2023-03-04T07:07:50;101249.69;;;5.09;100.00
8585;BME280;7180;52.742;11.420;2023-03-04T07:10:17;101257.53;;;5.07;100.00
8585;BME280;7180;52.742;11.420;2023-03-04T07:12:42;101267.81;;;5.13;100.00
8585;BME280;7180;52.742;11.420;2023-03-04T07:15:08;101281.44;;;5.24;100.00
8585;BME280;7180;52.742;11.420;2023-03-04T07:17:33;101270.91;;;5.27;100.00
8585;BME280;7180;52.742;11.420;2023-03-04T07:19:59;101264.81;;;5.28;100.00
8585;BME280;7180;52.742;11.420;2023-03-04T07:22:24;101271.00;;;5.24;100.00
8585;BME280;7180;52.742;11.420;2023-03-04T07:24:49;101268.47;;;5.21;100.00
8585;BME280;7180;52.742;11.420;2023-03-04T07:27:15;101266.84;;;5.17;100.00
8585;BME280;7180;52.742;11.420;2023-03-04T07:29:40;101272.69;;;5.25;100.00
8585;BME280;7180;52.742;11.420;2023-03-04T07:32:09;101278.00;;;5.22;100.00
8585;BME280;7180;52.742;11.420;2023-03-04T07:34:34;101278.16;;;5.16;100.00
8585;BME280;7180;52.742;11.420;2023-03-04T07:36:59;101280.59;;;5.22;100.00
8585;BME280;7180;52.742;11.420;2023-03-04T07:39:24;101286.78;;;5.18;100.00
8585;BME280;7180;52.742;11.420;2023-03-04T07:41:50;101279.63;;;5.26;100.00
8585;BME280;7180;52.742;11.420;2023-03-04T07:44:15;101284.66;;;5.32;100.00
8585;BME280;7180;52.742;11.420;2023-03-04T07:46:40;101279.75;;;5.22;100.00
8585;BME280;7180;52.742;11.420;2023-03-04T07:49:06;101289.97;;;5.29;100.00
8585;BME280;7180;52.742;11.420;2023-03-04T07:51:31;101290.13;;;5.23;100.00
8585;BME280;7180;52.742;11.420;2023-03-04T07:53:58;101290.06;;;5.26;100.00
8585;BME280;7180;52.742;11.420;2023-03-04T07:56:27;101298.75;;;5.25;100.00
8585;BME280;7180;52.742;11.420;2023-03-04T07:58:53;101287.69;;;5.17;100.00
8585;BME280;7180;52.742;11.420;2023-03-04T08:01:23;101283.34;;;5.16;100.00
8585;BME280;7180;52.742;11.420;2023-03-04T08:03:49;101293.53;;;5.27;100.00
8585;BME280;7180;52.742;11.420;2023-03-04T08:06:16;101271.38;;;5.09;100.00
8585;BME280;7180;52.742;11.420;2023-03-04T08:08:42;101269.53;;;5.14;100.00
8585;BME280;7180;52.742;11.420;2023-03-04T08:11:11;101249.31;;;5.22;100.00
8585;BME280;7180;52.742;11.420;2023-03-04T08:13:37;101230.72;;;5.35;100.00
8585;BME280;7180;52.742;11.420;2023-03-04T08:16:03;101181.25;;;5.33;100.00
8585;BME280;7180;52.742;11.420;2023-03-04T08:18:28;101143.44;;;5.48;100.00
8585;BME280;7180;52.742;11.420;2023-03-04T08:20:54;101095.28;;;5.59;100.00
8585;BME280;7180;52.742;11.420;2023-03-04T08:23:19;101041.50;;;5.55;100.00
8585;BME280;7180;52.742;11.420;2023-03-04T08:25:45;100971.72;;;5.62;100.00
8585;BME280;7180;52.742;11.420;2023-03-04T08:28:11;100933.78;;;5.78;100.00
8585;BME280;7180;52.742;11.420;2023-03-04T08:30:40;100847.00;;;5.73;100.00
8585;BME280;7180;52.742;11.420;2023-03-04T08:33:06;100784.00;;;5.85;100.00
8585;BME280;7180;52.742;11.420;2023-03-04T08:35:32;100675.56;;;5.76;100.00
8585;BME280;7180;52.742;11.420;2023-03-04T08:38:00;100610.88;;;5.86;98.81
8585;BME280;7180;52.742;11.420;2023-03-04T08:40:25;100540.59;;;6.03;97.09
8585;BME280;7180;52.742;11.420;2023-03-04T08:42:51;100414.66;;;5.98;95.66
8585;BME280;7180;52.742;11.420;2023-03-04T08:45:17;100375.00;;;6.10;94.66
8585;BME280;7180;52.742;11.420;2023-03-04T08:47:42;100313.47;;;6.23;93.43
8585;BME280;7180;52.742;11.420;2023-03-04T08:50:08;100261.34;;;6.21;92.61
8585;BME280;7180;52.742;11.420;2023-03-04T08:52:33;100211.81;;;6.20;92.25
8585;BME280;7180;52.742;11.420;2023-03-04T08:54:59;100176.59;;;6.28;91.53
8585;BME280;7180;52.742;11.420;2023-03-04T08:57:24;100132.56;;;6.21;90.71
8585;BME280;7180;52.742;11.420;2023-03-04T08:59:49;100167.06;;;6.46;90.34
8585;BME280;7180;52.742;11.420;2023-03-04T09:02:15;100158.19;;;6.32;90.02
8585;BME280;7180;52.742;11.420;2023-03-04T09:04:40;100166.22;;;6.27;90.12
8585;BME280;7180;52.742;11.420;2023-03-04T09:07:05;100209.97;;;6.22;90.76
8585;BME280;7180;52.742;11.420;2023-03-04T09:09:31;100216.75;;;6.26;90.49
8585;BME280;7180;52.742;11.420;2023-03-04T09:11:56;100187.53;;;6.18;90.55
8585;BME280;7180;52.742;11.420;2023-03-04T09:14:22;100221.78;;;6.12;90.54
8585;BME280;7180;52.742;11.420;2023-03-04T09:16:47;100287.53;;;6.20;90.62
8585;BME280;7180;52.742;11.420;2023-03-04T09:19:12;100329.66;;;6.31;91.25
8585;BME280;7180;52.742;11.420;2023-03-04T09:21:38;100263.66;;;6.09;90.72
8585;BME280;7180;52.742;11.420;2023-03-04T09:24:03;100331.50;;;6.29;90.65
8585;BME280;7180;52.742;11.420;2023-03-04T09:26:28;100322.69;;;6.32;90.89
8585;BME280;7180;52.742;11.420;2023-03-04T09:28:56;100318.00;;;6.38;90.53
8585;BME280;7180;52.742;11.420;2023-03-04T09:31:22;100347.00;;;6.32;91.23
8585;BME280;7180;52.742;11.420;2023-03-04T09:33:48;100392.31;;;6.31;91.29
8585;BME280;7180;52.742;11.420;2023-03-04T09:36:14;100409.25;;;6.41;91.26
8585;BME280;7180;52.742;11.420;2023-03-04T09:38:40;100393.25;;;6.49;90.94
8585;BME280;7180;52.742;11.420;2023-03-04T09:41:58;100339.84;;;6.37;90.74
8585;BME280;7180;52.742;11.420;2023-03-04T09:43:58;100308.47;;;6.18;90.48
8585;BME280;7180;52.742;11.420;2023-03-04T09:46:42;100329.81;;;6.28;90.87
8585;BME280;7180;52.742;11.420;2023-03-04T09:49:12;100364.34;;;6.53;90.47
8585;BME280;7180;52.742;11.420;2023-03-04T09:51:50;100306.09;;;6.51;90.47
8585;BME280;7180;52.742;11.420;2023-03-04T09:57:16;100159.00;;;6.32;89.17
8585;BME280;7180;52.742;11.420;2023-03-04T09:59:52;100062.19;;;6.37;88.09
8585;BME280;7180;52.742;11.420;2023-03-04T10:05:20;99905.00;;;6.30;87.03
8585;BME280;7180;52.742;11.420;2023-03-04T10:07:51;99837.84;;;6.49;85.67
8585;BME280;7180;52.742;11.420;2023-03-04T10:10:40;99760.06;;;6.70;84.64
8585;BME280;7180;52.742;11.420;2023-03-04T10:13:14;99494.28;;;6.45;83.38
8585;BME280;7180;52.742;11.420;2023-03-04T10:15:43;99423.66;;;6.32;82.45
8585;BME280;7180;52.742;11.420;2023-03-04T10:18:30;99489.06;;;6.59;82.69
8585;BME280;7180;52.742;11.420;2023-03-04T10:21:05;99415.97;;;6.73;81.42
8585;BME280;7180;52.742;11.420;2023-03-04T10:23:34;99266.88;;;6.76;80.39
8585;BME280;7180;52.742;11.420;2023-03-04T10:26:11;99184.28;;;6.61;80.30
8585;BME280;7180;52.742;11.420;2023-03-04T10:28:37;99145.84;;;6.63;79.33
8585;BME280;7180;52.742;11.420;2023-03-04T10:31:31;99103.16;;;6.64;79.12
8585;BME280;7180;52.742;11.420;2023-03-04T10:33:59;99103.47;;;6.85;78.58
8585;BME280;7180;52.742;11.420;2023-03-04T10:41:24;99043.50;;;6.96;78.24
8585;BME280;7180;52.742;11.420;2023-03-04T10:46:29;99035.34;;;6.88;77.71
8585;BME280;7180;52.742;11.420;2023-03-04T10:48:54;98971.22;;;6.84;77.90
8585;BME280;7180;52.742;11.420;2023-03-04T10:51:25;99026.19;;;6.95;77.64
8585;BME280;7180;52.742;11.420;2023-03-04T10:53:56;99027.44;;;6.89;77.74
8585;BME280;7180;52.742;11.420;2023-03-04T10:56:35;99136.53;;;6.98;78.03
8585;BME280;7180;52.742;11.420;2023-03-04T11:01:59;99071.59;;;6.80;78.45
8585;BME280;7180;52.742;11.420;2023-03-04T11:04:26;99103.25;;;6.88;78.18
8585;BME280;7180;52.742;11.420;2023-03-04T11:06:52;99085.69;;;6.77;77.98
8585;BME280;7180;52.742;11.420;2023-03-04T11:09:24;99028.97;;;6.67;78.40
8585;BME280;7180;52.742;11.420;2023-03-04T11:11:52;99066.69;;;6.75;78.04
8585;BME280;7180;52.742;11.420;2023-03-04T11:14:37;99074.34;;;6.78;78.08
8585;BME280;7180;52.742;11.420;2023-03-04T11:17:23;98948.63;;;6.70;78.01
8585;BME280;7180;52.742;11.420;2023-03-04T11:20:15;98867.66;;;6.70;77.56
8585;BME280;7180;52.742;11.420;2023-03-04T11:22:43;98770.84;;;6.73;76.33
8585;BME280;7180;52.742;11.420;2023-03-04T11:25:27;98781.25;;;6.86;76.02
8585;BME280;7180;52.742;11.420;2023-03-04T11:28:28;98759.94;;;7.03;76.17
8585;BME280;7180;52.742;11.420;2023-03-04T11:31:04;98685.19;;;7.13;75.52
8585;BME280;7180;52.742;11.420;2023-03-04T11:33:40;98524.34;;;7.09;74.71
8585;BME280;7180;52.742;11.420;2023-03-04T11:38:58;98372.19;;;7.16;73.62
8585;BME280;7180;52.742;11.420;2023-03-04T11:41:41;98244.94;;;6.96;73.09
8585;BME280;7180;52.742;11.420;2023-03-04T11:44:11;98446.88;;;7.30;73.38
8585;BME280;7180;52.742;11.420;2023-03-04T11:46:54;98368.81;;;7.36;72.97
8585;BME280;7180;52.742;11.420;2023-03-04T11:52:15;98412.56;;;7.34;73.66
8585;BME280;7180;52.742;11.420;2023-03-04T12:00:54;98506.06;;;7.09;74.71
8585;BME280;7180;52.742;11.420;2023-03-04T12:03:39;98656.13;;;7.40;74.74
8585;BME280;7180;52.742;11.420;2023-03-04T12:06:24;98586.72;;;7.24;75.04
8585;BME280;7180;52.742;11.420;2023-03-04T12:09:06;98648.13;;;7.19;75.54
8585;BME280;7180;52.742;11.420;2023-03-04T12:12:00;98491.41;;;6.84;75.10
8585;BME280;7180;52.742;11.420;2023-03-04T12:14:34;98556.03;;;7.04;74.74
8585;BME280;7180;52.742;11.420;2023-03-04T12:22:46;98460.19;;;7.38;73.81
8585;BME280;7180;52.742;11.420;2023-03-04T12:28:11;98226.78;;;6.95;73.87
8585;BME280;7180;52.742;11.420;2023-03-04T12:36:42;98397.63;;;7.14;74.15
8585;BME280;7180;52.742;11.420;2023-03-04T12:39:40;98274.56;;;7.17;73.01
8585;BME280;7180;52.742;11.420;2023-03-04T12:45:19;98232.47;;;7.20;73.42
8585;BME280;7180;52.742;11.420;2023-03-04T12:48:08;98343.16;;;7.42;73.50
8585;BME280;7180;52.742;11.420;2023-03-04T12:50:55;98202.56;;;7.45;72.90
8585;BME280;7180;52.742;11.420;2023-03-04T12:53:38;97989.09;;;7.25;71.84
8585;BME280;7180;52.742;11.420;2023-03-04T12:56:18;97994.69;;;7.20;71.80
8585;BME280;7180;52.742;11.420;2023-03-04T12:58:46;97931.78;;;7.03;71.96
8585;BME280;7180;52.742;11.420;2023-03-04T13:01:28;97854.19;;;6.84;72.08
8585;BME280;7180;52.742;11.420;2023-03-04T13:04:20;97947.41;;;6.93;71.97
8585;BME280;7180;52.742;11.420;2023-03-04T13:09:26;98099.81;;;7.03;72.99
8585;BME280;7180;52.742;11.420;2023-03-04T13:12:40;98074.00;;;6.89;72.86
8585;BME280;7180;52.742;11.420;2023-03-04T13:17:41;98005.34;;;6.57;73.16
8585;BME280;7180;52.742;11.420;2023-03-04T13:22:59;98216.88;;;7.09;73.35
8585;BME280;7180;52.742;11.420;2023-03-04T13:41:13;97786.06;;;7.06;70.99
8585;BME280;7180;52.742;11.420;2023-03-04T13:43:40;97855.38;;;7.10;71.61
8585;BME280;7180;52.742;11.420;2023-03-04T13:51:33;97826.94;;;6.77;71.91
8585;BME280;7180;52.742;11.420;2023-03-04T13:54:20;97845.88;;;6.60;72.58
8585;BME280;7180;52.742;11.420;2023-03-04T13:57:17;98031.66;;;6.65;73.52
8585;BME280;7180;52.742;11.420;2023-03-04T13:59:45;98086.69;;;6.73;73.46
8585;BME280;7180;52.742;11.420;2023-03-04T14:02:18;98048.56;;;6.50;73.88
8585;BME280;7180;52.742;11.420;2023-03-04T14:04:57;98068.72;;;6.27;74.06
8585;BME280;7180;52.742;11.420;2023-03-04T14:07:31;98274.25;;;6.46;74.94
8585;BME280;7180;52.742;11.420;2023-03-04T14:12:30;98242.84;;;6.79;74.29
8585;BME280;7180;52.742;11.420;2023-03-04T14:14:58;97969.84;;;6.75;72.96
8585;BME280;7180;52.742;11.420;2023-03-04T14:17:30;97764.16;;;6.69;71.63
8585;BME280;7180;52.742;11.420;2023-03-04T14:19:56;97704.63;;;6.63;71.39
8585;BME280;7180;52.742;11.420;2023-03-04T14:22:38;97845.94;;;6.79;71.80
8585;BME280;7180;52.742;11.420;2023-03-04T14:27:33;97514.47;;;6.68;70.00
8585;BME280;7180;52.742;11.420;2023-03-04T14:30:02;97413.94;;;6.64;70.02
8585;BME280;7180;52.742;11.420;2023-03-04T14:32:28;97403.50;;;6.64;69.90
8585;BME280;7180;52.742;11.420;2023-03-04T14:35:02;97305.22;;;6.46;69.44
8585;BME280;7180;52.742;11.420;2023-03-04T14:37:36;97306.47;;;6.42;69.59
8585;BME280;7180;52.742;11.420;2023-03-04T14:40:09;97451.59;;;6.62;69.81